Time,TemperatureF,DewpointF,PressureIn,WindDirection,WindDirectionDegrees,WindSpeedMPH,WindSpeedGustMPH,Humidity,HourlyPrecipIn,Conditions,Clouds,dailyrainin,SoftwareType,DateUTC
2014-01-20 00:15:00,28.9,22.0,29.44,West,270,4.2,-999.0,75,-99.99,,,0.00,Acu-Link.com,2014-01-20 05:15:00,
2014-01-20 00:30:00,28.6,22.0,29.43,West,270,2.7,-999.0,76,-99.99,,,0.00,Acu-Link.com,2014-01-20 05:30:00,
2014-01-20 00:45:00,29.1,22.5,29.43,West,270,5.3,-999.0,76,-99.99,,,0.00,Acu-Link.com,2014-01-20 05:45:00,
2014-01-20 01:00:00,29.7,22.8,29.41,West,270,4.2,-999.0,75,-99.99,,,0.00,Acu-Link.com,2014-01-20 06:00:00,
2014-01-20 01:15:00,30.0,23.1,29.42,WNW,292,6.8,-999.0,75,-99.99,,,0.00,Acu-Link.com,2014-01-20 06:15:00,
2014-01-20 01:30:00,30.6,23.0,29.41,West,270,4.7,-999.0,73,-99.99,,,0.00,Acu-Link.com,2014-01-20 06:30:00,
2014-01-20 01:45:00,30.7,23.1,29.42,SW,225,6.3,-999.0,73,-99.99,,,0.00,Acu-Link.com,2014-01-20 06:45:00,
2014-01-20 02:00:00,31.1,23.5,29.41,WNW,292,10.9,-999.0,73,-99.99,,,0.00,Acu-Link.com,2014-01-20 07:00:00,
2014-01-20 02:15:00,31.5,23.9,29.42,West,270,5.3,-999.0,73,-99.99,,,0.00,Acu-Link.com,2014-01-20 07:15:00,
2014-01-20 02:31:00,31.8,23.8,29.43,West,270,5.3,-999.0,72,-99.99,,,0.00,Acu-Link.com,2014-01-20 07:31:00,
2014-01-20 02:46:00,32.2,24.2,29.43,WSW,247,3.7,-999.0,72,-99.99,,,0.00,Acu-Link.com,2014-01-20 07:46:00,
2014-01-20 03:01:00,32.4,24.1,29.44,West,270,6.3,-999.0,71,-99.99,,,0.00,Acu-Link.com,2014-01-20 08:01:00,
2014-01-20 03:16:00,32.9,24.5,29.44,WSW,247,4.7,-999.0,71,-99.99,,,0.00,Acu-Link.com,2014-01-20 08:16:00,
2014-01-20 03:31:00,32.7,24.4,29.44,NW,315,3.2,-999.0,71,-99.99,,,0.00,Acu-Link.com,2014-01-20 08:31:00,
2014-01-20 03:46:00,32.7,24.4,29.43,WSW,247,2.7,-999.0,71,-99.99,,,0.00,Acu-Link.com,2014-01-20 08:46:00,
2014-01-20 04:01:00,32.9,24.5,29.43,West,270,5.3,-999.0,71,-99.99,,,0.00,Acu-Link.com,2014-01-20 09:01:00,
2014-01-20 04:16:00,33.1,24.7,29.43,West,270,3.2,-999.0,71,-99.99,,,0.00,Acu-Link.com,2014-01-20 09:16:00,
2014-01-20 04:31:00,33.1,25.1,29.43,SW,225,3.2,-999.0,72,-99.99,,,0.00,Acu-Link.com,2014-01-20 09:31:00,
2014-01-20 04:47:00,33.4,25.0,29.44,West,270,4.7,-999.0,71,-99.99,,,0.00,Acu-Link.com,2014-01-20 09:47:00,
2014-01-20 05:02:00,33.4,25.0,29.42,West,270,5.8,-999.0,71,-99.99,,,0.00,Acu-Link.com,2014-01-20 10:02:00,
2014-01-20 05:17:00,33.6,25.2,29.43,WNW,292,3.2,-999.0,71,-99.99,,,0.00,Acu-Link.com,2014-01-20 10:17:00,
2014-01-20 05:32:00,33.6,25.2,29.44,SW,225,2.7,-999.0,71,-99.99,,,0.00,Acu-Link.com,2014-01-20 10:32:00,
2014-01-20 05:47:00,33.6,25.6,29.45,West,270,2.7,-999.0,72,-99.99,,,0.00,Acu-Link.com,2014-01-20 10:47:00,
2014-01-20 06:02:00,33.8,25.7,29.44,West,270,5.3,-999.0,72,-99.99,,,0.00,Acu-Link.com,2014-01-20 11:02:00,
2014-01-20 06:17:00,34.3,25.6,29.45,SSW,202,6.8,-999.0,70,-99.99,,,0.00,Acu-Link.com,2014-01-20 11:17:00,
2014-01-20 06:33:00,34.5,25.7,29.44,West,270,2.7,-999.0,70,-99.99,,,0.00,Acu-Link.com,2014-01-20 11:33:00,
2014-01-20 06:48:00,34.7,25.9,29.45,WNW,292,3.2,-999.0,70,-99.99,,,0.00,Acu-Link.com,2014-01-20 11:48:00,
2014-01-20 07:03:00,34.7,25.9,29.46,SW,225,3.7,-999.0,70,-99.99,,,0.00,Acu-Link.com,2014-01-20 12:03:00,
2014-01-20 07:18:00,34.7,25.9,29.46,WSW,247,2.7,-999.0,70,-99.99,,,0.00,Acu-Link.com,2014-01-20 12:18:00,
2014-01-20 07:33:00,34.9,26.1,29.47,West,270,2.2,-999.0,70,-99.99,,,0.00,Acu-Link.com,2014-01-20 12:33:00,
2014-01-20 07:48:00,34.9,26.1,29.47,SSW,202,2.2,-999.0,70,-99.99,,,0.00,Acu-Link.com,2014-01-20 12:48:00,
2014-01-20 08:03:00,34.7,26.3,29.46,WSW,247,2.2,-999.0,71,-99.99,,,0.00,Acu-Link.com,2014-01-20 13:03:00,
2014-01-20 08:18:00,34.7,26.3,29.48,WSW,247,2.2,-999.0,71,-99.99,,,0.00,Acu-Link.com,2014-01-20 13:18:00,
2014-01-20 08:34:00,35.1,26.7,29.48,West,270,2.7,-999.0,71,-99.99,,,0.00,Acu-Link.com,2014-01-20 13:34:00,
2014-01-20 08:49:00,35.6,26.8,29.48,West,270,2.7,-999.0,70,-99.99,,,0.00,Acu-Link.com,2014-01-20 13:49:00,
2014-01-20 09:04:00,36.1,26.9,29.49,West,270,3.7,-999.0,69,-99.99,,,0.00,Acu-Link.com,2014-01-20 14:04:00,
2014-01-20 09:19:00,36.5,27.0,29.49,West,270,3.7,-999.0,68,-99.99,,,0.00,Acu-Link.com,2014-01-20 14:19:00,
2014-01-20 09:34:00,36.7,27.2,29.49,West,270,3.7,-999.0,68,-99.99,,,0.00,Acu-Link.com,2014-01-20 14:34:00,
2014-01-20 09:49:00,37.0,27.4,29.49,WNW,292,8.9,-999.0,68,-99.99,,,0.00,Acu-Link.com,2014-01-20 14:49:00,
2014-01-20 10:04:00,37.2,27.6,29.50,SW,225,4.2,-999.0,68,-99.99,,,0.00,Acu-Link.com,2014-01-20 15:04:00,
2014-01-20 10:20:00,37.2,28.0,29.51,WNW,292,2.7,-999.0,69,-99.99,,,0.00,Acu-Link.com,2014-01-20 15:20:00,
2014-01-20 10:35:00,37.4,28.2,29.51,SW,225,5.8,-999.0,69,-99.99,,,0.00,Acu-Link.com,2014-01-20 15:35:00,
2014-01-20 10:50:00,37.6,28.4,29.52,West,270,4.7,-999.0,69,-99.99,,,0.00,Acu-Link.com,2014-01-20 15:50:00,
2014-01-20 11:05:00,37.6,28.4,29.51,West,270,9.9,-999.0,69,-99.99,,,0.00,Acu-Link.com,2014-01-20 16:05:00,
2014-01-20 11:20:00,37.8,28.9,29.49,SSW,202,4.2,-999.0,70,-99.99,,,0.00,Acu-Link.com,2014-01-20 16:20:00,
2014-01-20 11:35:00,37.8,28.9,29.47,WNW,292,7.3,-999.0,70,-99.99,,,0.00,Acu-Link.com,2014-01-20 16:35:00,
2014-01-20 11:50:00,38.3,29.4,29.48,West,270,8.9,-999.0,70,-99.99,,,0.00,Acu-Link.com,2014-01-20 16:50:00,
2014-01-20 12:05:00,38.1,29.5,29.47,SW,225,3.7,-999.0,71,-99.99,,,0.00,Acu-Link.com,2014-01-20 17:05:00,
2014-01-20 12:20:00,38.1,29.5,29.47,WSW,247,6.3,-999.0,71,-99.99,,,0.00,Acu-Link.com,2014-01-20 17:20:00,
2014-01-20 12:36:00,38.1,29.5,29.47,West,270,5.3,-999.0,71,-99.99,,,0.00,Acu-Link.com,2014-01-20 17:36:00,
2014-01-20 12:51:00,38.1,29.5,29.48,SW,225,3.7,-999.0,71,-99.99,,,0.00,Acu-Link.com,2014-01-20 17:51:00,
2014-01-20 13:06:00,38.7,30.1,29.47,SW,225,4.7,-999.0,71,-99.99,,,0.00,Acu-Link.com,2014-01-20 18:06:00,
2014-01-20 13:21:00,38.5,29.9,29.48,SW,225,2.7,-999.0,71,-99.99,,,0.00,Acu-Link.com,2014-01-20 18:21:00,
2014-01-20 13:36:00,38.1,29.9,29.48,West,270,4.7,-999.0,72,-99.99,,,0.00,Acu-Link.com,2014-01-20 18:36:00,
2014-01-20 13:51:00,38.1,29.5,29.49,West,270,5.8,-999.0,71,-99.99,,,0.00,Acu-Link.com,2014-01-20 18:51:00,
2014-01-20 14:06:00,37.9,29.7,29.50,West,270,7.8,-999.0,72,-99.99,,,0.00,Acu-Link.com,2014-01-20 19:06:00,
2014-01-20 14:21:00,37.8,29.9,29.51,WNW,292,4.2,-999.0,73,-99.99,,,0.00,Acu-Link.com,2014-01-20 19:21:00,
2014-01-20 14:37:00,37.8,29.9,29.52,NW,315,9.9,-999.0,73,-99.99,,,0.00,Acu-Link.com,2014-01-20 19:37:00,
2014-01-20 14:52:00,37.8,29.6,29.54,NW,315,5.8,-999.0,72,-99.99,,,0.00,Acu-Link.com,2014-01-20 19:52:00,
2014-01-20 15:07:00,37.8,29.6,29.55,West,270,13.0,-999.0,72,-99.99,,,0.00,Acu-Link.com,2014-01-20 20:07:00,
2014-01-20 15:22:00,37.8,28.9,29.57,WNW,292,10.9,-999.0,70,-99.99,,,0.00,Acu-Link.com,2014-01-20 20:22:00,
2014-01-20 15:37:00,37.8,28.9,29.57,WNW,292,6.3,-999.0,70,-99.99,,,0.00,Acu-Link.com,2014-01-20 20:37:00,
2014-01-20 15:52:00,37.2,28.3,29.59,WNW,292,13.5,-999.0,70,-99.99,,,0.00,Acu-Link.com,2014-01-20 20:52:00,
2014-01-20 16:07:00,36.5,27.3,29.60,SW,225,10.9,-999.0,69,-99.99,,,0.00,Acu-Link.com,2014-01-20 21:07:00,
2014-01-20 16:22:00,36.3,26.4,29.61,West,270,16.1,-999.0,67,-99.99,,,0.00,Acu-Link.com,2014-01-20 21:22:00,
2014-01-20 16:37:00,36.0,25.4,29.62,West,270,11.4,-999.0,65,-99.99,,,0.00,Acu-Link.com,2014-01-20 21:37:00,
2014-01-20 16:53:00,35.6,25.7,29.63,WNW,292,5.3,-999.0,67,-99.99,,,0.00,Acu-Link.com,2014-01-20 21:53:00,
2014-01-20 17:08:00,35.1,25.3,29.64,WSW,247,6.8,-999.0,67,-99.99,,,0.00,Acu-Link.com,2014-01-20 22:08:00,
2014-01-20 17:23:00,34.7,25.2,29.63,West,270,5.8,-999.0,68,-99.99,,,0.00,Acu-Link.com,2014-01-20 22:23:00,
2014-01-20 17:38:00,34.3,23.8,29.62,WNW,292,13.5,-999.0,65,-99.99,,,0.00,Acu-Link.com,2014-01-20 22:38:00,
2014-01-20 17:53:00,34.0,23.1,29.61,WSW,247,6.8,-999.0,64,-99.99,,,0.00,Acu-Link.com,2014-01-20 22:53:00,
2014-01-20 18:09:00,33.8,22.6,29.63,SW,225,11.4,-999.0,63,-99.99,,,0.00,Acu-Link.com,2014-01-20 23:09:00,
2014-01-20 18:24:00,33.4,22.2,29.64,NNW,337,2.2,-999.0,63,-99.99,,,0.00,Acu-Link.com,2014-01-20 23:24:00,
2014-01-20 18:39:00,33.3,22.1,29.66,WNW,292,5.3,-999.0,63,-99.99,,,0.00,Acu-Link.com,2014-01-20 23:39:00,
2014-01-20 18:54:00,33.1,21.5,29.68,West,270,8.9,-999.0,62,-99.99,,,0.00,Acu-Link.com,2014-01-20 23:54:00,
2014-01-20 19:09:00,32.7,20.8,29.69,WSW,247,6.3,-999.0,61,-99.99,,,0.00,Acu-Link.com,2014-01-21 00:09:00,
2014-01-20 19:24:00,32.5,20.9,29.70,WNW,292,6.8,-999.0,62,-99.99,,,0.00,Acu-Link.com,2014-01-21 00:24:00,
2014-01-20 19:39:00,32.2,21.0,29.72,West,270,7.3,-999.0,63,-99.99,,,0.00,Acu-Link.com,2014-01-21 00:39:00,
2014-01-20 19:55:00,32.2,21.0,29.73,WNW,292,3.2,-999.0,63,-99.99,,,0.00,Acu-Link.com,2014-01-21 00:55:00,
2014-01-20 20:10:00,32.0,20.5,29.73,West,270,5.8,-999.0,62,-99.99,,,0.00,Acu-Link.com,2014-01-21 01:10:00,
2014-01-20 20:25:00,31.8,20.7,29.73,West,270,3.7,-999.0,63,-99.99,,,0.00,Acu-Link.com,2014-01-21 01:25:00,
2014-01-20 20:40:00,31.5,20.4,29.71,SW,225,4.2,-999.0,63,-99.99,,,0.00,Acu-Link.com,2014-01-21 01:40:00,
2014-01-20 20:55:00,31.3,20.2,29.69,WNW,292,6.8,-999.0,63,-99.99,,,0.00,Acu-Link.com,2014-01-21 01:55:00,
2014-01-20 21:10:00,30.9,20.2,29.68,West,270,6.3,-999.0,64,-99.99,,,0.00,Acu-Link.com,2014-01-21 02:10:00,
2014-01-20 21:25:00,30.7,20.4,29.68,WNW,292,4.7,-999.0,65,-99.99,,,0.00,Acu-Link.com,2014-01-21 02:25:00,
2014-01-20 21:40:00,30.6,20.3,29.69,West,270,4.2,-999.0,65,-99.99,,,0.00,Acu-Link.com,2014-01-21 02:40:00,
2014-01-20 21:55:00,30.2,19.9,29.69,WNW,292,8.9,-999.0,65,-99.99,,,0.00,Acu-Link.com,2014-01-21 02:55:00,
2014-01-20 22:11:00,29.7,19.4,29.70,WNW,292,3.7,-999.0,65,-99.99,,,0.00,Acu-Link.com,2014-01-21 03:11:00,
2014-01-20 22:26:00,29.3,18.7,29.70,WNW,292,7.8,-999.0,64,-99.99,,,0.00,Acu-Link.com,2014-01-21 03:26:00,
2014-01-20 22:41:00,29.1,18.1,29.70,West,270,2.7,-999.0,63,-99.99,,,0.00,Acu-Link.com,2014-01-21 03:41:00,
2014-01-20 22:56:00,28.9,17.9,29.71,West,270,7.3,-999.0,63,-99.99,,,0.00,Acu-Link.com,2014-01-21 03:56:00,
2014-01-20 23:11:00,28.6,18.0,29.71,WNW,292,8.3,-999.0,64,-99.99,,,0.00,Acu-Link.com,2014-01-21 04:11:00,
2014-01-20 23:26:00,28.2,17.6,29.71,NW,315,2.7,-999.0,64,-99.99,,,0.00,Acu-Link.com,2014-01-21 04:26:00,
2014-01-20 23:41:00,27.9,18.4,29.72,SW,225,2.2,-999.0,67,-99.99,,,0.00,Acu-Link.com,2014-01-21 04:41:00,
2014-01-20 23:56:00,27.3,18.2,29.71,SE,135,1.7,-999.0,68,-99.99,,,0.00,Acu-Link.com,2014-01-21 04:56:00,